Garden Ridge, Texas
Current Conditions -  °F | °C
As of 1:58 AM on Thursday 23 Oct 2014 (Local Time) from KRND Reporting Station
Broken Clouds Broken Clouds  
Wind Chill: 68°   Ceiling: 13000
Heat Index: 68°   Visibility: 10mi
Dew Point: 60°   Wind: 3mph
Humidity: 74%   Direction: 140°SE
Pressure: 30.1"   Gusts: NA
Location:  29.6654°N, 98.3191°W
Report Text: KRND 230658Z AUTO 14003KT 10SM BKN130 BKN160 20/15 A3010 RMK AO2 SLP186 T02010153
Loading
Personal Weather Stations






























Interactive Weather Map
Tropical Storm Tracking
New forecast layout! Learn more

10-Day Weather Forecast

Advertisements
Track Severe Weather on mobile